sensor_id;sensor_type;location;lat;lon;timestamp;temperature;humidity
13616;DHT22;6879;51.368;6.782;2022-11-15T11:01:50;15.00;91.20
13616;DHT22;6879;51.368;6.782;2022-11-15T11:04:19;15.20;89.70
13616;DHT22;6879;51.368;6.782;2022-11-15T11:06:49;15.50;88.20
13616;DHT22;6879;51.368;6.782;2022-11-15T11:09:28;15.70;87.60
13616;DHT22;6879;51.368;6.782;2022-11-15T11:12:00;15.90;86.30
13616;DHT22;6879;51.368;6.782;2022-11-15T11:14:31;16.20;86.20
13616;DHT22;6879;51.368;6.782;2022-11-15T11:17:09;16.80;85.20
13616;DHT22;6879;51.368;6.782;2022-11-15T11:19:52;17.20;82.40
13616;DHT22;6879;51.368;6.782;2022-11-15T11:22:26;16.70;82.20
13616;DHT22;6879;51.368;6.782;2022-11-15T11:25:16;16.80;81.90
13616;DHT22;6879;51.368;6.782;2022-11-15T11:27:59;16.40;81.70
13616;DHT22;6879;51.368;6.782;2022-11-15T11:30:38;16.70;81.90
13616;DHT22;6879;51.368;6.782;2022-11-15T11:33:16;17.50;81.00
13616;DHT22;6879;51.368;6.782;2022-11-15T11:35:53;18.00;79.90
13616;DHT22;6879;51.368;6.782;2022-11-15T11:38:38;18.10;79.90
13616;DHT22;6879;51.368;6.782;2022-11-15T11:41:15;18.50;80.50
13616;DHT22;6879;51.368;6.782;2022-11-15T11:43:53;18.60;78.30
13616;DHT22;6879;51.368;6.782;2022-11-15T11:46:37;18.10;78.40
13616;DHT22;6879;51.368;6.782;2022-11-15T11:49:12;17.60;79.20
13616;DHT22;6879;51.368;6.782;2022-11-15T11:51:49;17.10;79.30
13616;DHT22;6879;51.368;6.782;2022-11-15T11:54:24;17.00;79.90
13616;DHT22;6879;51.368;6.782;2022-11-15T11:56:55;17.10;79.50
13616;DHT22;6879;51.368;6.782;2022-11-15T11:59:32;16.90;79.30
13616;DHT22;6879;51.368;6.782;2022-11-15T12:02:08;17.30;79.00
13616;DHT22;6879;51.368;6.782;2022-11-15T12:04:44;17.20;78.10
13616;DHT22;6879;51.368;6.782;2022-11-15T12:07:20;17.20;78.60
13616;DHT22;6879;51.368;6.782;2022-11-15T12:18:17;17.60;77.70
13616;DHT22;6879;51.368;6.782;2022-11-15T12:20:53;18.20;76.80
13616;DHT22;6879;51.368;6.782;2022-11-15T12:23:26;18.90;76.30
13616;DHT22;6879;51.368;6.782;2022-11-15T12:26:02;19.00;74.20
13616;DHT22;6879;51.368;6.782;2022-11-15T12:28:37;18.50;74.40
13616;DHT22;6879;51.368;6.782;2022-11-15T12:31:32;17.90;74.90
13616;DHT22;6879;51.368;6.782;2022-11-15T12:34:14;18.10;75.20
13616;DHT22;6879;51.368;6.782;2022-11-15T12:36:46;18.50;74.10
13616;DHT22;6879;51.368;6.782;2022-11-15T12:39:18;18.90;73.40
13616;DHT22;6879;51.368;6.782;2022-11-15T12:44:58;19.80;71.60
13616;DHT22;6879;51.368;6.782;2022-11-15T12:47:27;20.10;71.60
13616;DHT22;6879;51.368;6.782;2022-11-15T12:49:55;19.90;71.70
13616;DHT22;6879;51.368;6.782;2022-11-15T12:52:26;20.10;71.90
13616;DHT22;6879;51.368;6.782;2022-11-15T12:55:29;20.50;71.10
13616;DHT22;6879;51.368;6.782;2022-11-15T12:58:26;20.90;70.00
13616;DHT22;6879;51.368;6.782;2022-11-15T13:00:56;20.30;70.70
13616;DHT22;6879;51.368;6.782;2022-11-15T13:03:28;20.10;72.00
13616;DHT22;6879;51.368;6.782;2022-11-15T13:06:02;19.80;72.20
13616;DHT22;6879;51.368;6.782;2022-11-15T13:08:49;19.60;73.50
13616;DHT22;6879;51.368;6.782;2022-11-15T13:11:49;20.10;73.20
13616;DHT22;6879;51.368;6.782;2022-11-15T13:17:30;20.60;72.00
13616;DHT22;6879;51.368;6.782;2022-11-15T13:20:17;20.20;72.00
13616;DHT22;6879;51.368;6.782;2022-11-15T13:22:47;19.10;73.80
13616;DHT22;6879;51.368;6.782;2022-11-15T13:28:24;17.70;77.30
13616;DHT22;6879;51.368;6.782;2022-11-15T13:30:58;17.40;78.60
13616;DHT22;6879;51.368;6.782;2022-11-15T13:33:31;17.20;78.90
13616;DHT22;6879;51.368;6.782;2022-11-15T13:36:05;17.00;79.60
13616;DHT22;6879;51.368;6.782;2022-11-15T13:38:36;16.80;80.50
13616;DHT22;6879;51.368;6.782;2022-11-15T13:41:20;16.60;80.90
13616;DHT22;6879;51.368;6.782;2022-11-15T13:43:49;16.60;81.60
13616;DHT22;6879;51.368;6.782;2022-11-15T13:46:20;16.50;81.60
13616;DHT22;6879;51.368;6.782;2022-11-15T13:48:55;16.50;81.90
13616;DHT22;6879;51.368;6.782;2022-11-15T13:51:30;16.40;82.10
13616;DHT22;6879;51.368;6.782;2022-11-15T13:54:02;16.60;82.20
13616;DHT22;6879;51.368;6.782;2022-11-15T13:56:34;16.90;81.80
13616;DHT22;6879;51.368;6.782;2022-11-15T13:59:09;17.10;81.50
13616;DHT22;6879;51.368;6.782;2022-11-15T14:01:41;17.50;80.40
13616;DHT22;6879;51.368;6.782;2022-11-15T14:04:13;17.20;80.60
13616;DHT22;6879;51.368;6.782;2022-11-15T14:06:48;16.80;81.60
13616;DHT22;6879;51.368;6.782;2022-11-15T14:09:36;16.50;82.70
13616;DHT22;6879;51.368;6.782;2022-11-15T14:12:24;16.30;83.40
13616;DHT22;6879;51.368;6.782;2022-11-15T14:14:53;16.20;83.40
13616;DHT22;6879;51.368;6.782;2022-11-15T14:17:35;16.30;83.70
13616;DHT22;6879;51.368;6.782;2022-11-15T14:20:26;16.50;83.40
13616;DHT22;6879;51.368;6.782;2022-11-15T14:22:56;16.80;83.00
13616;DHT22;6879;51.368;6.782;2022-11-15T14:25:26;16.60;82.80
13616;DHT22;6879;51.368;6.782;2022-11-15T14:28:28;16.30;83.50
13616;DHT22;6879;51.368;6.782;2022-11-15T14:30:59;16.00;84.60
13616;DHT22;6879;51.368;6.782;2022-11-15T14:33:30;15.70;85.70
13616;DHT22;6879;51.368;6.782;2022-11-15T14:36:03;15.60;86.40
13616;DHT22;6879;51.368;6.782;2022-11-15T14:38:32;15.50;87.10
13616;DHT22;6879;51.368;6.782;2022-11-15T14:41:02;15.30;87.80
13616;DHT22;6879;51.368;6.782;2022-11-15T14:43:32;15.20;88.10
13616;DHT22;6879;51.368;6.782;2022-11-15T14:46:01;15.10;88.80
13616;DHT22;6879;51.368;6.782;2022-11-15T14:48:29;15.00;89.20
13616;DHT22;6879;51.368;6.782;2022-11-15T14:50:58;15.00;89.60
13616;DHT22;6879;51.368;6.782;2022-11-15T14:53:27;14.90;89.90
13616;DHT22;6879;51.368;6.782;2022-11-15T14:55:56;14.90;90.20
13616;DHT22;6879;51.368;6.782;2022-11-15T14:58:25;14.90;90.30
13616;DHT22;6879;51.368;6.782;2022-11-15T15:00:55;14.90;90.60
13616;DHT22;6879;51.368;6.782;2022-11-15T15:03:24;14.80;90.70
13616;DHT22;6879;51.368;6.782;2022-11-15T15:05:52;14.80;90.80
13616;DHT22;6879;51.368;6.782;2022-11-15T15:08:21;14.80;91.10
13616;DHT22;6879;51.368;6.782;2022-11-15T15:10:49;14.80;91.10
13616;DHT22;6879;51.368;6.782;2022-11-15T15:13:20;14.80;91.30
13616;DHT22;6879;51.368;6.782;2022-11-15T15:15:50;14.70;91.40
13616;DHT22;6879;51.368;6.782;2022-11-15T15:18:20;14.70;91.80
13616;DHT22;6879;51.368;6.782;2022-11-15T15:20:54;14.60;91.70
13616;DHT22;6879;51.368;6.782;2022-11-15T15:23:23;14.60;92.00
13616;DHT22;6879;51.368;6.782;2022-11-15T15:25:56;14.50;92.00
13616;DHT22;6879;51.368;6.782;2022-11-15T15:28:25;14.50;92.30
13616;DHT22;6879;51.368;6.782;2022-11-15T15:31:00;14.50;92.40
13616;DHT22;6879;51.368;6.782;2022-11-15T15:33:30;14.40;92.60
13616;DHT22;6879;51.368;6.782;2022-11-15T15:35:59;14.40;92.90
13616;DHT22;6879;51.368;6.782;2022-11-15T15:38:27;14.40;93.10
13616;DHT22;6879;51.368;6.782;2022-11-15T15:40:59;14.30;93.20
13616;DHT22;6879;51.368;6.782;2022-11-15T15:43:29;14.30;93.40
13616;DHT22;6879;51.368;6.782;2022-11-15T15:45:58;14.20;93.60
13616;DHT22;6879;51.368;6.782;2022-11-15T15:48:26;14.20;93.60
13616;DHT22;6879;51.368;6.782;2022-11-15T15:50:56;14.20;93.80
13616;DHT22;6879;51.368;6.782;2022-11-15T15:53:25;14.10;94.00
13616;DHT22;6879;51.368;6.782;2022-11-15T15:55:53;14.10;94.10
13616;DHT22;6879;51.368;6.782;2022-11-15T15:58:22;14.10;94.20
13616;DHT22;6879;51.368;6.782;2022-11-15T16:00:50;14.10;94.30
13616;DHT22;6879;51.368;6.782;2022-11-15T16:03:19;14.10;94.40
13616;DHT22;6879;51.368;6.782;2022-11-15T16:05:49;14.10;94.60
13616;DHT22;6879;51.368;6.782;2022-11-15T16:08:21;14.00;94.60
13616;DHT22;6879;51.368;6.782;2022-11-15T16:10:50;14.00;94.60
13616;DHT22;6879;51.368;6.782;2022-11-15T16:13:18;14.00;94.80
13616;DHT22;6879;51.368;6.782;2022-11-15T16:15:48;14.00;94.80
13616;DHT22;6879;51.368;6.782;2022-11-15T16:18:18;14.00;94.80
13616;DHT22;6879;51.368;6.782;2022-11-15T16:20:48;13.90;95.10
13616;DHT22;6879;51.368;6.782;2022-11-15T16:23:20;13.90;95.00
13616;DHT22;6879;51.368;6.782;2022-11-15T16:25:53;14.00;95.00
13616;DHT22;6879;51.368;6.782;2022-11-15T16:28:24;13.90;95.10
13616;DHT22;6879;51.368;6.782;2022-11-15T16:31:00;14.00;95.10
13616;DHT22;6879;51.368;6.782;2022-11-15T16:33:29;14.00;95.00
13616;DHT22;6879;51.368;6.782;2022-11-15T16:36:02;14.00;95.10
13616;DHT22;6879;51.368;6.782;2022-11-15T16:38:32;14.00;95.20
13616;DHT22;6879;51.368;6.782;2022-11-15T16:41:02;13.90;95.20
13616;DHT22;6879;51.368;6.782;2022-11-15T16:43:31;14.00;95.30
13616;DHT22;6879;51.368;6.782;2022-11-15T16:46:07;14.00;95.40
13616;DHT22;6879;51.368;6.782;2022-11-15T16:48:39;13.90;95.40
13616;DHT22;6879;51.368;6.782;2022-11-15T16:51:08;14.00;95.50
13616;DHT22;6879;51.368;6.782;2022-11-15T16:53:38;14.00;95.50
13616;DHT22;6879;51.368;6.782;2022-11-15T16:56:24;14.00;95.50
13616;DHT22;6879;51.368;6.782;2022-11-15T16:58:53;14.00;95.60
13616;DHT22;6879;51.368;6.782;2022-11-15T17:01:26;14.00;95.60
13616;DHT22;6879;51.368;6.782;2022-11-15T17:03:55;14.00;95.70
13616;DHT22;6879;51.368;6.782;2022-11-15T17:06:30;14.00;95.70
13616;DHT22;6879;51.368;6.782;2022-11-15T17:09:00;14.00;95.80
13616;DHT22;6879;51.368;6.782;2022-11-15T17:11:29;14.00;95.80
13616;DHT22;6879;51.368;6.782;2022-11-15T17:13:58;13.90;96.00
13616;DHT22;6879;51.368;6.782;2022-11-15T17:16:27;14.00;96.10
13616;DHT22;6879;51.368;6.782;2022-11-15T17:18:56;14.00;96.10
13616;DHT22;6879;51.368;6.782;2022-11-15T17:21:24;14.00;96.10
13616;DHT22;6879;51.368;6.782;2022-11-15T17:24:01;14.00;96.20
13616;DHT22;6879;51.368;6.782;2022-11-15T17:26:30;14.00;96.10
13616;DHT22;6879;51.368;6.782;2022-11-15T17:29:06;14.00;96.20
13616;DHT22;6879;51.368;6.782;2022-11-15T17:31:35;14.10;96.10
13616;DHT22;6879;51.368;6.782;2022-11-15T17:34:05;14.10;96.10
13616;DHT22;6879;51.368;6.782;2022-11-15T17:36:34;14.10;96.00
13616;DHT22;6879;51.368;6.782;2022-11-15T17:39:05;14.10;96.00
13616;DHT22;6879;51.368;6.782;2022-11-15T17:41:34;14.10;96.10
13616;DHT22;6879;51.368;6.782;2022-11-15T17:44:03;14.10;96.00
13616;DHT22;6879;51.368;6.782;2022-11-15T17:46:32;14.10;95.90
13616;DHT22;6879;51.368;6.782;2022-11-15T17:49:02;14.10;96.00
13616;DHT22;6879;51.368;6.782;2022-11-15T17:51:31;14.10;96.00
13616;DHT22;6879;51.368;6.782;2022-11-15T17:54:00;14.10;95.90
13616;DHT22;6879;51.368;6.782;2022-11-15T17:56:30;14.20;96.00
13616;DHT22;6879;51.368;6.782;2022-11-15T17:58:59;14.20;95.90
13616;DHT22;6879;51.368;6.782;2022-11-15T18:01:30;14.10;96.00
13616;DHT22;6879;51.368;6.782;2022-11-15T18:04:00;14.20;95.90
13616;DHT22;6879;51.368;6.782;2022-11-15T18:06:31;14.20;96.10
13616;DHT22;6879;51.368;6.782;2022-11-15T18:09:01;14.10;96.00
13616;DHT22;6879;51.368;6.782;2022-11-15T18:11:33;14.20;95.90
13616;DHT22;6879;51.368;6.782;2022-11-15T18:14:07;14.20;96.00
13616;DHT22;6879;51.368;6.782;2022-11-15T18:16:37;14.20;96.00
13616;DHT22;6879;51.368;6.782;2022-11-15T18:19:07;14.10;96.20
13616;DHT22;6879;51.368;6.782;2022-11-15T18:21:40;14.10;96.40
13616;DHT22;6879;51.368;6.782;2022-11-15T18:24:27;14.10;96.80
13616;DHT22;6879;51.368;6.782;2022-11-15T18:26:59;14.00;96.80
13616;DHT22;6879;51.368;6.782;2022-11-15T18:29:29;14.00;97.00
13616;DHT22;6879;51.368;6.782;2022-11-15T18:31:59;14.00;97.60
13616;DHT22;6879;51.368;6.782;2022-11-15T18:34:31;13.90;98.50
13616;DHT22;6879;51.368;6.782;2022-11-15T18:37:00;13.80;99.40
13616;DHT22;6879;51.368;6.782;2022-11-15T18:39:29;13.70;99.90
13616;DHT22;6879;51.368;6.782;2022-11-15T18:42:00;13.50;99.90
13616;DHT22;6879;51.368;6.782;2022-11-15T18:44:29;13.40;99.90
13616;DHT22;6879;51.368;6.782;2022-11-15T18:46:58;13.40;99.90
13616;DHT22;6879;51.368;6.782;2022-11-15T18:49:26;13.30;99.90
13616;DHT22;6879;51.368;6.782;2022-11-15T18:51:56;13.20;99.90
13616;DHT22;6879;51.368;6.782;2022-11-15T18:54:25;13.20;99.90
13616;DHT22;6879;51.368;6.782;2022-11-15T18:57:15;13.20;99.90
13616;DHT22;6879;51.368;6.782;2022-11-15T18:59:44;13.10;99.90
13616;DHT22;6879;51.368;6.782;2022-11-15T19:02:13;13.00;99.90
13616;DHT22;6879;51.368;6.782;2022-11-15T19:04:42;13.00;99.90
13616;DHT22;6879;51.368;6.782;2022-11-15T19:07:11;12.90;99.90
13616;DHT22;6879;51.368;6.782;2022-11-15T19:09:40;12.80;99.90
13616;DHT22;6879;51.368;6.782;2022-11-15T19:12:12;12.60;99.90
13616;DHT22;6879;51.368;6.782;2022-11-15T19:14:45;12.60;99.90
13616;DHT22;6879;51.368;6.782;2022-11-15T19:17:14;12.50;99.90
13616;DHT22;6879;51.368;6.782;2022-11-15T19:19:43;12.40;99.90
13616;DHT22;6879;51.368;6.782;2022-11-15T19:22:11;12.40;99.90
13616;DHT22;6879;51.368;6.782;2022-11-15T19:24:40;12.30;99.90
13616;DHT22;6879;51.368;6.782;2022-11-15T19:27:09;12.30;99.90
13616;DHT22;6879;51.368;6.782;2022-11-15T19:29:38;12.30;99.90
13616;DHT22;6879;51.368;6.782;2022-11-15T19:32:09;12.20;99.90
13616;DHT22;6879;51.368;6.782;2022-11-15T19:34:37;12.20;99.90
13616;DHT22;6879;51.368;6.782;2022-11-15T19:37:07;12.20;99.90
13616;DHT22;6879;51.368;6.782;2022-11-15T19:39:36;12.20;99.90
13616;DHT22;6879;51.368;6.782;2022-11-15T19:42:09;12.20;99.90
13616;DHT22;6879;51.368;6.782;2022-11-15T19:44:37;12.10;99.90
13616;DHT22;6879;51.368;6.782;2022-11-15T19:47:07;12.10;99.90
13616;DHT22;6879;51.368;6.782;2022-11-15T19:49:36;12.10;99.90
13616;DHT22;6879;51.368;6.782;2022-11-15T19:52:05;12.10;99.90
13616;DHT22;6879;51.368;6.782;2022-11-15T19:54:34;12.10;99.90
13616;DHT22;6879;51.368;6.782;2022-11-15T19:57:06;12.10;99.90
13616;DHT22;6879;51.368;6.782;2022-11-15T19:59:34;12.10;99.90
13616;DHT22;6879;51.368;6.782;2022-11-15T20:02:03;12.10;99.90
13616;DHT22;6879;51.368;6.782;2022-11-15T20:04:33;12.10;99.90
13616;DHT22;6879;51.368;6.782;2022-11-15T20:07:02;12.10;99.90
13616;DHT22;6879;51.368;6.782;2022-11-15T20:09:31;12.10;99.90
13616;DHT22;6879;51.368;6.782;2022-11-15T20:11:59;12.10;99.90
13616;DHT22;6879;51.368;6.782;2022-11-15T20:14:28;12.10;99.90
13616;DHT22;6879;51.368;6.782;2022-11-15T20:16:57;12.10;99.90
13616;DHT22;6879;51.368;6.782;2022-11-15T20:19:26;12.10;99.90
13616;DHT22;6879;51.368;6.782;2022-11-15T20:21:57;12.10;99.90
13616;DHT22;6879;51.368;6.782;2022-11-15T20:24:25;12.10;99.90
13616;DHT22;6879;51.368;6.782;2022-11-15T20:26:54;12.10;99.90
13616;DHT22;6879;51.368;6.782;2022-11-15T20:29:23;12.10;99.90
13616;DHT22;6879;51.368;6.782;2022-11-15T20:31:52;12.10;99.90
13616;DHT22;6879;51.368;6.782;2022-11-15T20:34:21;12.10;99.90
13616;DHT22;6879;51.368;6.782;2022-11-15T20:36:50;12.10;99.90
13616;DHT22;6879;51.368;6.782;2022-11-15T20:39:20;12.10;99.90
13616;DHT22;6879;51.368;6.782;2022-11-15T20:41:49;12.10;99.90
13616;DHT22;6879;51.368;6.782;2022-11-15T20:44:17;12.10;99.90
13616;DHT22;6879;51.368;6.782;2022-11-15T20:46:46;12.10;99.90
13616;DHT22;6879;51.368;6.782;2022-11-15T20:49:15;12.10;99.90
13616;DHT22;6879;51.368;6.782;2022-11-15T20:51:43;12.00;99.90
13616;DHT22;6879;51.368;6.782;2022-11-15T20:54:25;12.10;99.90
13616;DHT22;6879;51.368;6.782;2022-11-15T21:01:18;12.10;99.90
13616;DHT22;6879;51.368;6.782;2022-11-15T21:04:13;12.10;99.90
13616;DHT22;6879;51.368;6.782;2022-11-15T21:07:16;12.10;99.90
13616;DHT22;6879;51.368;6.782;2022-11-15T21:10:04;12.10;99.90
13616;DHT22;6879;51.368;6.782;2022-11-15T21:12:51;12.10;99.90
13616;DHT22;6879;51.368;6.782;2022-11-15T21:15:25;12.10;99.90
13616;DHT22;6879;51.368;6.782;2022-11-15T21:17:57;12.10;99.90
13616;DHT22;6879;51.368;6.782;2022-11-15T21:20:26;12.10;99.90
13616;DHT22;6879;51.368;6.782;2022-11-15T21:22:55;12.10;99.90
13616;DHT22;6879;51.368;6.782;2022-11-15T21:25:25;12.10;99.90
13616;DHT22;6879;51.368;6.782;2022-11-15T21:27:54;12.10;99.90
13616;DHT22;6879;51.368;6.782;2022-11-15T21:30:24;12.10;99.90
13616;DHT22;6879;51.368;6.782;2022-11-15T21:32:53;12.10;99.90
13616;DHT22;6879;51.368;6.782;2022-11-15T21:35:27;12.10;99.90
13616;DHT22;6879;51.368;6.782;2022-11-15T21:37:55;12.10;99.90
13616;DHT22;6879;51.368;6.782;2022-11-15T21:40:26;12.10;99.90
13616;DHT22;6879;51.368;6.782;2022-11-15T21:42:54;12.10;99.90
13616;DHT22;6879;51.368;6.782;2022-11-15T21:45:23;12.10;99.90
13616;DHT22;6879;51.368;6.782;2022-11-15T21:47:51;12.10;99.90
13616;DHT22;6879;51.368;6.782;2022-11-15T21:50:20;12.00;99.90
13616;DHT22;6879;51.368;6.782;2022-11-15T21:52:49;12.10;99.90
13616;DHT22;6879;51.368;6.782;2022-11-15T21:55:20;12.10;99.90
13616;DHT22;6879;51.368;6.782;2022-11-15T21:57:51;12.10;99.90
13616;DHT22;6879;51.368;6.782;2022-11-15T22:00:20;12.10;99.90
13616;DHT22;6879;51.368;6.782;2022-11-15T22:03:05;12.10;99.90
13616;DHT22;6879;51.368;6.782;2022-11-15T22:05:34;12.00;99.90
13616;DHT22;6879;51.368;6.782;2022-11-15T22:08:03;12.00;99.90
13616;DHT22;6879;51.368;6.782;2022-11-15T22:10:32;12.10;99.90
13616;DHT22;6879;51.368;6.782;2022-11-15T22:13:02;12.00;99.90
13616;DHT22;6879;51.368;6.782;2022-11-15T22:15:31;12.10;99.90
13616;DHT22;6879;51.368;6.782;2022-11-15T22:18:00;12.10;99.90
13616;DHT22;6879;51.368;6.782;2022-11-15T22:20:28;12.10;99.90
13616;DHT22;6879;51.368;6.782;2022-11-15T22:23:10;12.00;99.90
13616;DHT22;6879;51.368;6.782;2022-11-15T22:25:39;12.00;99.90
13616;DHT22;6879;51.368;6.782;2022-11-15T22:28:09;12.00;99.90
13616;DHT22;6879;51.368;6.782;2022-11-15T22:30:38;12.00;99.90
13616;DHT22;6879;51.368;6.782;2022-11-15T22:33:08;12.00;99.90
13616;DHT22;6879;51.368;6.782;2022-11-15T22:35:42;12.00;99.90
13616;DHT22;6879;51.368;6.782;2022-11-15T22:38:11;12.00;99.90
13616;DHT22;6879;51.368;6.782;2022-11-15T22:40:40;12.00;99.90
13616;DHT22;6879;51.368;6.782;2022-11-15T22:43:13;12.00;99.90
13616;DHT22;6879;51.368;6.782;2022-11-15T22:45:46;11.90;99.90
13616;DHT22;6879;51.368;6.782;2022-11-15T22:48:20;12.00;99.90
13616;DHT22;6879;51.368;6.782;2022-11-15T22:50:49;12.00;99.90
13616;DHT22;6879;51.368;6.782;2022-11-15T22:53:18;12.00;99.90
13616;DHT22;6879;51.368;6.782;2022-11-15T22:55:51;12.00;99.90
13616;DHT22;6879;51.368;6.782;2022-11-15T22:58:23;12.00;99.90
13616;DHT22;6879;51.368;6.782;2022-11-15T23:00:55;12.00;99.90
13616;DHT22;6879;51.368;6.782;2022-11-15T23:03:25;12.00;99.90
13616;DHT22;6879;51.368;6.782;2022-11-15T23:06:00;12.00;99.90
13616;DHT22;6879;51.368;6.782;2022-11-15T23:08:29;12.00;99.90
13616;DHT22;6879;51.368;6.782;2022-11-15T23:10:59;12.00;99.90
13616;DHT22;6879;51.368;6.782;2022-11-15T23:13:49;12.00;99.90
13616;DHT22;6879;51.368;6.782;2022-11-15T23:16:19;12.00;99.90
13616;DHT22;6879;51.368;6.782;2022-11-15T23:18:56;12.00;99.90
13616;DHT22;6879;51.368;6.782;2022-11-15T23:21:26;12.00;99.90
13616;DHT22;6879;51.368;6.782;2022-11-15T23:24:13;12.00;99.90
13616;DHT22;6879;51.368;6.782;2022-11-15T23:26:43;12.00;99.90
13616;DHT22;6879;51.368;6.782;2022-11-15T23:29:16;12.00;99.90
13616;DHT22;6879;51.368;6.782;2022-11-15T23:31:44;12.00;99.90
13616;DHT22;6879;51.368;6.782;2022-11-15T23:34:31;12.00;99.90
13616;DHT22;6879;51.368;6.782;2022-11-15T23:37:03;12.00;99.90
13616;DHT22;6879;51.368;6.782;2022-11-15T23:39:32;12.00;99.90
13616;DHT22;6879;51.368;6.782;2022-11-15T23:42:00;12.00;99.90
13616;DHT22;6879;51.368;6.782;2022-11-15T23:44:36;12.00;99.90
13616;DHT22;6879;51.368;6.782;2022-11-15T23:47:05;12.00;99.90
13616;DHT22;6879;51.368;6.782;2022-11-15T23:49:34;12.00;99.90
13616;DHT22;6879;51.368;6.782;2022-11-15T23:52:03;12.00;99.90
13616;DHT22;6879;51.368;6.782;2022-11-15T23:54:32;12.00;99.90
13616;DHT22;6879;51.368;6.782;2022-11-15T23:57:04;12.00;99.90
13616;DHT22;6879;51.368;6.782;2022-11-15T23:59:40;12.00;99.90
